Time;durP1;ratioP1;P1;durP2;ratioP2;P2;SDS_P1;SDS_P2;PMS_P1;PMS_P2;Temp;Humidity;BMP_temperature;BMP_pressure;BME280_temperature;BME280_humidity;BME280_pressure;Samples;Min_cycle;Max_cycle;Signal;HPM_P1;HPM_P2
2023/12/24 00:01:45;;;;;;;1999.90;999.90;;;;;;;10.04;100.00;100684.56;10458844;28;20055;-64
2023/12/24 00:06:47;;;;;;;1999.90;999.90;;;;;;;10.10;100.00;100659.81;10457348;28;20056;-65
2023/12/24 00:11:49;;;;;;;1999.90;999.90;;;;;;;10.16;100.00;100667.34;10457901;28;20476;-64
2023/12/24 00:16:52;;;;;;;1999.90;999.90;;;;;;;10.15;100.00;100688.34;10457882;28;20051;-65
2023/12/24 00:21:54;;;;;;;1999.90;999.90;;;;;;;10.18;100.00;100728.25;10457686;28;20484;-65
2023/12/24 00:26:57;;;;;;;1999.90;999.90;;;;;;;10.30;100.00;100676.16;10457398;28;20071;-64
2023/12/24 00:31:59;;;;;;;1999.90;999.90;;;;;;;10.16;100.00;100672.56;10457217;28;20045;-65
2023/12/24 00:37:02;;;;;;;1999.90;999.90;;;;;;;10.22;100.00;100640.81;10457542;28;20053;-65
2023/12/24 00:42:04;;;;;;;1999.90;999.90;;;;;;;10.21;100.00;100626.03;10456863;28;20049;-65
2023/12/24 00:47:06;;;;;;;1999.90;999.90;;;;;;;10.21;100.00;100615.56;10456775;28;20133;-65
2023/12/24 00:52:09;;;;;;;1999.90;999.90;;;;;;;10.24;100.00;100593.63;10455778;28;20060;-64
2023/12/24 00:57:11;;;;;;;1999.90;999.90;;;;;;;10.17;100.00;100581.81;10455395;28;20411;-64
2023/12/24 01:02:13;;;;;;;1999.90;999.90;;;;;;;10.30;100.00;100580.16;10455251;28;20403;-64
2023/12/24 01:07:16;;;;;;;1999.90;999.90;;;;;;;10.23;100.00;100566.59;10456353;28;20060;-65
2023/12/24 01:12:19;;;;;;;1999.90;999.90;;;;;;;10.36;100.00;100556.28;10456262;28;20053;-65
2023/12/24 01:17:21;;;;;;;1999.90;999.90;;;;;;;10.25;100.00;100553.44;10456039;28;20408;-64
2023/12/24 01:22:24;;;;;;;1999.90;999.90;;;;;;;10.32;100.00;100565.28;10438298;28;20487;-64
2023/12/24 01:27:27;;;;;;;1999.90;999.90;;;;;;;10.25;100.00;100568.31;10455897;28;20049;-65
2023/12/24 01:32:29;;;;;;;1999.90;999.90;;;;;;;10.15;100.00;100570.63;10455976;28;20174;-65
2023/12/24 01:37:32;;;;;;;1999.90;999.90;;;;;;;10.11;100.00;100575.19;10455932;28;20049;-65
2023/12/24 01:42:34;;;;;;;1999.90;999.90;;;;;;;9.95;100.00;100574.41;10454488;28;20472;-65
2023/12/24 01:47:37;;;;;;;1999.90;999.90;;;;;;;9.82;100.00;100572.50;10455691;28;20060;-64
2023/12/24 01:52:40;;;;;;;1999.90;999.90;;;;;;;9.71;100.00;100572.28;10457938;28;20057;-64
2023/12/24 01:57:43;;;;;;;1999.90;999.90;;;;;;;9.62;100.00;100572.81;10462319;28;20124;-64
2023/12/24 02:02:46;;;;;;;1999.90;999.90;;;;;;;9.47;100.00;100570.13;10461945;28;20427;-64
2023/12/24 02:07:48;;;;;;;1999.90;999.90;;;;;;;9.39;100.00;100569.72;10461809;28;20491;-64
2023/12/24 02:12:51;;;;;;;1999.90;999.90;;;;;;;9.39;100.00;100563.66;10462569;28;20479;-63
2023/12/24 02:17:54;;;;;;;1999.90;999.90;;;;;;;9.37;100.00;100552.47;10462523;28;20056;-63
2023/12/24 02:22:56;;;;;;;1999.90;999.90;;;;;;;9.22;100.00;100564.59;10461344;28;20045;-63
2023/12/24 02:28:04;;;;;;;1999.90;999.90;;;;;;;9.18;100.00;100560.47;10462219;28;20053;-63
2023/12/24 02:33:08;;;;;;;1999.90;999.90;;;;;;;9.22;100.00;100538.47;10462162;28;20127;-63
2023/12/24 02:38:10;;;;;;;1999.90;999.90;;;;;;;9.18;100.00;100537.81;10460509;28;20048;-63
2023/12/24 02:43:13;;;;;;;1999.90;999.90;;;;;;;9.12;100.00;100532.91;10461606;28;20404;-63
2023/12/24 02:48:15;;;;;;;1999.90;999.90;;;;;;;9.22;100.00;100526.25;10460229;28;20540;-63
2023/12/24 02:53:18;;;;;;;1999.90;999.90;;;;;;;9.29;100.00;100508.47;10460862;28;20066;-63
2023/12/24 02:58:20;;;;;;;1999.90;999.90;;;;;;;9.29;100.00;100490.19;10461130;28;20064;-63
2023/12/24 03:03:22;;;;;;;1999.90;999.90;;;;;;;9.48;100.00;100497.78;10460717;28;20048;-63
2023/12/24 03:08:25;;;;;;;1999.90;999.90;;;;;;;9.42;100.00;100500.78;10459670;28;20053;-64
2023/12/24 03:13:27;;;;;;;1999.90;999.90;;;;;;;9.38;100.00;100487.06;10460959;28;20077;-63
2023/12/24 03:18:30;;;;;;;1999.90;999.90;;;;;;;9.60;100.00;100489.25;10460132;28;20484;-63
2023/12/24 03:23:32;;;;;;;1999.90;999.90;;;;;;;9.65;100.00;100482.00;10460318;28;20094;-63
2023/12/24 03:28:35;;;;;;;1999.90;999.90;;;;;;;9.44;100.00;100491.06;10459106;28;20064;-64
2023/12/24 03:33:37;;;;;;;1999.90;999.90;;;;;;;9.75;100.00;100482.31;10459770;28;20055;-64
2023/12/24 03:38:39;;;;;;;1999.90;999.90;;;;;;;9.51;100.00;100474.09;10459345;28;20061;-64
2023/12/24 03:43:42;;;;;;;1999.90;999.90;;;;;;;9.58;100.00;100462.38;10459472;28;20045;-64
2023/12/24 03:48:45;;;;;;;1999.90;999.90;;;;;;;9.70;100.00;100458.19;10457860;28;20411;-64
2023/12/24 03:53:47;;;;;;;1999.90;999.90;;;;;;;9.70;100.00;100447.75;10458854;28;20059;-64
2023/12/24 03:58:50;;;;;;;1999.90;999.90;;;;;;;9.78;100.00;100450.72;10458810;28;20060;-63
2023/12/24 04:03:52;;;;;;;1999.90;999.90;;;;;;;9.84;100.00;100439.91;10458430;28;20128;-64
2023/12/24 04:08:54;;;;;;;1999.90;999.90;;;;;;;9.81;100.00;100431.41;10458374;28;20048;-63
2023/12/24 04:13:58;;;;;;;1999.90;999.90;;;;;;;9.91;100.00;100439.53;10457715;28;20047;-64
2023/12/24 04:19:01;;;;;;;1999.90;999.90;;;;;;;9.93;100.00;100433.28;10457854;28;20053;-63
2023/12/24 04:24:03;;;;;;;1999.90;999.90;;;;;;;9.78;100.00;100431.59;10456466;28;20549;-63
2023/12/24 04:29:06;;;;;;;1999.90;999.90;;;;;;;9.84;100.00;100441.69;10456245;28;20044;-64
2023/12/24 04:34:08;;;;;;;1999.90;999.90;;;;;;;9.82;100.00;100433.94;10456337;28;20056;-64
2023/12/24 04:39:11;;;;;;;1999.90;999.90;;;;;;;10.09;100.00;100432.38;10457025;28;20110;-64
2023/12/24 04:44:15;;;;;;;1999.90;999.90;;;;;;;9.97;100.00;100426.94;10457286;28;20055;-64
2023/12/24 04:49:17;;;;;;;1999.90;999.90;;;;;;;10.14;100.00;100431.13;10456938;28;20125;-63
2023/12/24 04:54:19;;;;;;;1999.90;999.90;;;;;;;10.16;100.00;100404.88;10456822;28;20449;-64
2023/12/24 04:59:22;;;;;;;1999.90;999.90;;;;;;;9.98;100.00;100418.13;10456531;28;20053;-64
2023/12/24 05:04:26;;;;;;;1999.90;999.90;;;;;;;10.02;100.00;100418.81;10456501;28;20099;-64
2023/12/24 05:09:29;;;;;;;1999.90;999.90;;;;;;;10.01;100.00;100412.72;10456380;28;20454;-64
2023/12/24 05:14:34;;;;;;;1999.90;999.90;;;;;;;9.89;100.00;100404.81;10456277;28;20049;-64
2023/12/24 05:19:36;;;;;;;1999.90;999.90;;;;;;;10.06;100.00;100404.59;10456163;28;20055;-63
2023/12/24 05:24:38;;;;;;;1999.90;999.90;;;;;;;9.90;100.00;100399.50;10456285;28;20044;-64
2023/12/24 05:29:41;;;;;;;1999.90;999.90;;;;;;;9.98;100.00;100406.84;10463376;28;20059;-64
2023/12/24 05:34:45;;;;;;;1999.90;999.90;;;;;;;10.03;100.00;100407.41;10464152;28;20103;-64
2023/12/24 05:39:48;;;;;;;1999.90;999.90;;;;;;;9.98;100.00;100410.28;10464211;28;20102;-65
2023/12/24 05:44:50;;;;;;;1999.90;999.90;;;;;;;10.14;100.00;100412.00;10463878;28;20523;-64
2023/12/24 05:49:52;;;;;;;1999.90;999.90;;;;;;;10.18;100.00;100410.84;10462692;28;20055;-65
2023/12/24 05:54:55;;;;;;;1999.90;999.90;;;;;;;10.18;100.00;100401.22;10463195;28;20051;-63
2023/12/24 05:59:57;;;;;;;1999.90;999.90;;;;;;;10.25;100.00;100399.06;10462820;28;20091;-64
2023/12/24 06:04:59;;;;;;;1999.90;999.90;;;;;;;10.34;100.00;100397.69;10463115;28;20041;-64
2023/12/24 06:10:02;;;;;;;1999.90;999.90;;;;;;;10.13;100.00;100407.69;10462834;28;20480;-64
2023/12/24 06:15:05;;;;;;;1999.90;999.90;;;;;;;10.29;100.00;100395.34;10461416;28;20449;-64
2023/12/24 06:20:08;;;;;;;1999.90;999.90;;;;;;;10.36;100.00;100401.06;10462800;28;20073;-64
2023/12/24 06:25:11;;;;;;;1999.90;999.90;;;;;;;10.28;100.00;100383.19;10462332;28;20053;-63
2023/12/24 06:30:13;;;;;;;1999.90;999.90;;;;;;;10.41;100.00;100393.75;10462122;28;20052;-64
2023/12/24 06:35:16;;;;;;;1999.90;999.90;;;;;;;10.47;100.00;100376.81;10462030;28;20051;-64
2023/12/24 06:40:19;;;;;;;1999.90;999.90;;;;;;;10.48;100.00;100370.66;10460090;28;20524;-64
2023/12/24 06:45:21;;;;;;;1999.90;999.90;;;;;;;10.53;100.00;100377.28;10460590;28;20140;-64
2023/12/24 06:50:23;;;;;;;1999.90;999.90;;;;;;;10.57;100.00;100381.38;10461704;28;20056;-63
2023/12/24 06:55:26;;;;;;;1999.90;999.90;;;;;;;10.57;100.00;100373.53;10461234;28;20562;-64
2023/12/24 07:00:28;;;;;;;1999.90;999.90;;;;;;;10.58;100.00;100383.03;10461119;28;20053;-63
2023/12/24 07:05:35;;;;;;;1999.90;999.90;;;;;;;10.47;100.00;100379.44;10459634;28;20040;-63
2023/12/24 07:10:37;;;;;;;1999.90;999.90;;;;;;;10.53;100.00;100379.88;10460636;28;20477;-64
2023/12/24 07:15:40;;;;;;;1999.90;999.90;;;;;;;10.69;100.00;100373.66;10459212;28;20059;-65
2023/12/24 07:20:42;;;;;;;1999.90;999.90;;;;;;;10.68;100.00;100370.22;10460215;28;20412;-64
2023/12/24 07:25:45;;;;;;;1999.90;999.90;;;;;;;10.89;100.00;100386.31;10460006;28;20050;-63
2023/12/24 07:30:47;;;;;;;1999.90;999.90;;;;;;;10.79;100.00;100372.13;10459129;28;20049;-64
2023/12/24 07:35:49;;;;;;;1999.90;999.90;;;;;;;10.88;100.00;100374.16;10459723;28;20045;-64
2023/12/24 07:40:52;;;;;;;1999.90;999.90;;;;;;;10.85;100.00;100368.28;10459348;28;20389;-64
2023/12/24 07:45:54;;;;;;;1999.90;999.90;;;;;;;10.74;100.00;100351.50;10458181;28;20056;-64
2023/12/24 07:50:56;;;;;;;1999.90;999.90;;;;;;;10.67;100.00;100365.06;10456970;28;20052;-64
2023/12/24 07:55:59;;;;;;;1999.90;999.90;;;;;;;10.84;100.00;100361.34;10458571;28;20057;-65
2023/12/24 08:01:02;;;;;;;1999.90;999.90;;;;;;;11.04;100.00;100362.66;10458508;28;20404;-64
2023/12/24 08:06:05;;;;;;;1999.90;999.90;;;;;;;10.99;100.00;100365.59;10458370;28;20053;-64
2023/12/24 08:11:07;;;;;;;1999.90;999.90;;;;;;;11.10;100.00;100360.47;10458399;28;20048;-64
2023/12/24 08:16:20;;;;;;;1999.90;999.90;;;;;;;11.08;100.00;100369.41;10458419;28;20056;-64
2023/12/24 08:21:22;;;;;;;1999.90;999.90;;;;;;;11.17;100.00;100368.78;10457998;28;20053;-64
2023/12/24 08:26:26;;;;;;;1999.90;999.90;;;;;;;11.42;100.00;100361.88;10456498;28;20051;-64
2023/12/24 08:31:28;;;;;;;1999.90;999.90;;;;;;;11.24;100.00;100346.44;10456532;28;20060;-64
2023/12/24 08:36:30;;;;;;;1999.90;999.90;;;;;;;11.30;100.00;100343.41;10456019;28;20048;-65
2023/12/24 08:41:33;;;;;;;1999.90;999.90;;;;;;;11.32;100.00;100338.91;10457115;28;20057;-65
2023/12/24 08:46:35;;;;;;;1999.90;999.90;;;;;;;11.27;100.00;100348.03;10457594;28;20045;-64
2023/12/24 08:51:38;;;;;;;1999.90;999.90;;;;;;;11.43;100.00;100348.69;10456667;28;20051;-63
2023/12/24 08:56:41;;;;;;;1999.90;999.90;;;;;;;11.32;100.00;100345.94;10456880;28;20049;-64
2023/12/24 09:01:43;;;;;;;1999.90;999.90;;;;;;;11.21;100.00;100351.06;10456375;28;20052;-64
2023/12/24 09:06:46;;;;;;;1999.90;999.90;;;;;;;11.31;100.00;100360.84;10455203;28;20534;-64
2023/12/24 09:11:49;;;;;;;1999.90;999.90;;;;;;;11.48;100.00;100361.44;10456277;28;20482;-64
2023/12/24 09:16:51;;;;;;;1999.90;999.90;;;;;;;11.54;100.00;100358.41;10456227;28;20064;-64
2023/12/24 09:21:54;;;;;;;1999.90;999.90;;;;;;;11.49;100.00;100363.97;10456335;28;20128;-64
2023/12/24 09:26:57;;;;;;;1999.90;999.90;;;;;;;11.51;100.00;100356.00;10455963;28;20156;-65
2023/12/24 09:31:59;;;;;;;1999.90;999.90;;;;;;;11.59;100.00;100356.31;10454111;28;20132;-64
2023/12/24 09:37:01;;;;;;;1999.90;999.90;;;;;;;11.44;100.00;100360.00;10453360;28;20446;-65
2023/12/24 09:42:04;;;;;;;1999.90;999.90;;;;;;;11.62;100.00;100345.63;10455482;28;20049;-64
2023/12/24 09:47:07;;;;;;;1999.90;999.90;;;;;;;11.52;100.00;100329.69;10455925;28;20128;-65
2023/12/24 09:52:09;;;;;;;1999.90;999.90;;;;;;;11.52;100.00;100340.16;10454741;28;20061;-65
2023/12/24 09:57:11;;;;;;;1999.90;999.90;;;;;;;11.67;100.00;100334.81;10430412;28;20046;-64
2023/12/24 10:02:14;;;;;;;1999.90;999.90;;;;;;;11.65;100.00;100327.06;10435518;28;20049;-65
2023/12/24 10:07:17;;;;;;;1999.90;999.90;;;;;;;11.56;100.00;100335.56;10441301;28;20041;-65
2023/12/24 10:12:19;;;;;;;1999.90;999.90;;;;;;;11.59;100.00;100324.03;10438957;28;20502;-65
2023/12/24 10:17:29;;;;;;;1999.90;999.90;;;;;;;11.55;100.00;100346.13;10439710;28;20128;-65
2023/12/24 10:22:31;;;;;;;1999.90;999.90;;;;;;;11.63;100.00;100336.81;10425943;28;20064;-65
2023/12/24 10:27:34;;;;;;;1999.90;999.90;;;;;;;11.75;100.00;100345.63;10424873;28;20042;-64
2023/12/24 10:32:38;;;;;;;1999.90;999.90;;;;;;;11.84;100.00;100341.53;10425369;28;20050;-65
2023/12/24 10:37:40;;;;;;;1999.90;999.90;;;;;;;11.76;100.00;100346.47;10448999;28;20068;-65
2023/12/24 10:42:42;;;;;;;1999.90;999.90;;;;;;;11.85;100.00;100356.28;10451088;28;20049;-65
2023/12/24 10:47:45;;;;;;;1999.90;999.90;;;;;;;11.94;100.00;100339.13;10431356;28;20049;-65
2023/12/24 10:52:47;;;;;;;1999.90;999.90;;;;;;;12.12;100.00;100326.47;10425924;28;20050;-65
2023/12/24 10:58:08;;;;;;;1999.90;999.90;;;;;;;12.03;100.00;100309.59;10432551;28;20098;-65
2023/12/24 11:03:11;;;;;;;1999.90;999.90;;;;;;;12.08;100.00;100302.25;10460322;28;20124;-65
2023/12/24 11:08:22;;;;;;;1999.90;999.90;;;;;;;12.18;100.00;100308.50;10458660;28;20095;-64
2023/12/24 11:13:36;;;;;;;1999.90;999.90;;;;;;;12.17;100.00;100295.47;10458287;28;20484;-64
2023/12/24 11:18:45;;;;;;;1999.90;999.90;;;;;;;12.22;100.00;100283.72;10459371;28;20114;-64
2023/12/24 11:24:20;;;;;;;1999.90;999.90;;;;;;;12.19;100.00;100288.38;10457915;28;20041;-64
2023/12/24 11:29:48;;;;;;;1999.90;999.90;;;;;;;12.15;100.00;100294.75;10459033;28;20061;-64
2023/12/24 11:34:57;;;;;;;1999.90;999.90;;;;;;;12.22;100.00;100270.59;10460168;28;20099;-65
2023/12/24 11:40:07;;;;;;;1999.90;999.90;;;;;;;12.32;100.00;100243.66;10459438;28;20455;-65
2023/12/24 11:45:19;;;;;;;1999.90;999.90;;;;;;;12.42;100.00;100237.66;10459403;28;20490;-64
2023/12/24 11:50:21;;;;;;;1999.90;999.90;;;;;;;12.50;100.00;100241.47;10457964;28;20064;-64
2023/12/24 11:55:24;;;;;;;1999.90;999.90;;;;;;;12.28;100.00;100232.56;10457428;28;20059;-64
2023/12/24 12:00:27;;;;;;;1999.90;999.90;;;;;;;12.52;100.00;100240.41;10458641;28;20139;-64
2023/12/24 12:05:30;;;;;;;1999.90;999.90;;;;;;;12.21;100.00;100239.22;10457721;28;20045;-65
2023/12/24 12:10:33;;;;;;;1999.90;999.90;;;;;;;12.22;100.00;100235.63;10471166;22;20049;-65
2023/12/24 12:15:35;;;;;;;1999.90;999.90;;;;;;;12.29;100.00;100228.13;10458098;28;20055;-66
2023/12/24 12:20:39;;;;;;;1999.90;999.90;;;;;;;12.13;100.00;100215.31;10457942;28;20055;-66
2023/12/24 12:25:42;;;;;;;1999.90;999.90;;;;;;;12.18;100.00;100182.53;10457900;28;20051;-65
2023/12/24 12:30:45;;;;;;;1999.90;999.90;;;;;;;12.15;100.00;100197.66;10457577;28;20051;-65
2023/12/24 12:35:48;;;;;;;1999.90;999.90;;;;;;;12.13;100.00;100189.06;10456160;28;20049;-65
2023/12/24 12:40:54;;;;;;;1999.90;999.90;;;;;;;12.14;100.00;100188.09;10457831;28;20099;-65
2023/12/24 12:45:56;;;;;;;1999.90;999.90;;;;;;;12.11;100.00;100189.19;10457021;28;20118;-66
2023/12/24 12:50:58;;;;;;;1999.90;999.90;;;;;;;12.13;100.00;100154.97;10455924;28;20056;-65
2023/12/24 12:56:06;;;;;;;1999.90;999.90;;;;;;;12.00;100.00;100163.75;10455503;28;20095;-65
2023/12/24 13:01:09;;;;;;;1999.90;999.90;;;;;;;12.01;100.00;100162.78;10455486;28;20490;-65
2023/12/24 13:06:12;;;;;;;1999.90;999.90;;;;;;;12.06;100.00;100154.59;10456591;28;20049;-66
2023/12/24 13:11:18;;;;;;;1999.90;999.90;;;;;;;11.98;100.00;100156.94;10456229;28;20128;-66
2023/12/24 13:16:21;;;;;;;1999.90;999.90;;;;;;;12.14;100.00;100162.72;10456144;28;20216;-66
2023/12/24 13:21:23;;;;;;;1999.90;999.90;;;;;;;12.09;100.00;100151.72;10456261;28;20055;-66
2023/12/24 13:26:26;;;;;;;1999.90;999.90;;;;;;;12.12;100.00;100146.28;10456810;28;20053;-66
2023/12/24 13:31:29;;;;;;;1999.90;999.90;;;;;;;12.07;100.00;100162.34;10456051;28;20051;-66
2023/12/24 13:36:31;;;;;;;1999.90;999.90;;;;;;;12.12;100.00;100172.50;10455948;28;20045;-66
2023/12/24 13:41:34;;;;;;;1999.90;999.90;;;;;;;12.11;100.00;100164.75;10455651;28;20055;-66
2023/12/24 13:46:38;;;;;;;1999.90;999.90;;;;;;;12.30;100.00;100167.66;10456368;28;20064;-66
2023/12/24 13:51:40;;;;;;;1999.90;999.90;;;;;;;12.37;100.00;100158.41;10463806;28;20055;-66
2023/12/24 13:56:42;;;;;;;1999.90;999.90;;;;;;;12.51;100.00;100149.47;10462679;28;20555;-66
2023/12/24 14:01:45;;;;;;;1999.90;999.90;;;;;;;12.60;100.00;100138.25;10463751;28;20083;-66
2023/12/24 14:06:48;;;;;;;1999.90;999.90;;;;;;;12.57;100.00;100124.53;10463008;28;20132;-66
2023/12/24 14:11:50;;;;;;;1999.90;999.90;;;;;;;12.68;100.00;100111.41;10463273;28;20131;-66
2023/12/24 14:16:52;;;;;;;1999.90;999.90;;;;;;;12.74;100.00;100097.81;10462666;28;20048;-66
2023/12/24 14:21:55;;;;;;;1999.90;999.90;;;;;;;12.84;100.00;100108.41;10462782;28;20048;-66
2023/12/24 14:26:57;;;;;;;1999.90;999.90;;;;;;;12.81;100.00;100085.03;10462515;28;20047;-66
2023/12/24 14:31:59;;;;;;;1999.90;999.90;;;;;;;12.93;100.00;100083.25;10462142;28;20495;-65
2023/12/24 14:37:02;;;;;;;1999.90;999.90;;;;;;;12.96;100.00;100080.34;10462043;28;20127;-66
2023/12/24 14:42:04;;;;;;;1999.90;999.90;;;;;;;12.82;100.00;100076.19;10461855;28;20103;-66
2023/12/24 14:47:07;;;;;;;1999.90;999.90;;;;;;;12.81;100.00;100080.63;10461776;28;20052;-66
2023/12/24 14:52:09;;;;;;;1999.90;999.90;;;;;;;12.80;100.00;100078.09;10461470;28;20106;-66
2023/12/24 14:57:12;;;;;;;1999.90;999.90;;;;;;;12.86;100.00;100071.53;10460897;28;20373;-66
2023/12/24 15:02:15;;;;;;;1999.90;999.90;;;;;;;12.89;100.00;100066.84;10461069;28;20051;-66
2023/12/24 15:07:18;;;;;;;1999.90;999.90;;;;;;;12.80;100.00;100063.16;10459465;28;20119;-65
2023/12/24 15:12:22;;;;;;;1999.90;999.90;;;;;;;12.80;100.00;100075.47;10460866;28;20059;-66
2023/12/24 15:17:27;;;;;;;1999.90;999.90;;;;;;;12.75;100.00;100075.81;10459396;28;20048;-66
2023/12/24 15:22:30;;;;;;;1999.90;999.90;;;;;;;12.73;100.00;100071.66;10460568;28;20053;-66
2023/12/24 15:27:32;;;;;;;1999.90;999.90;;;;;;;12.82;100.00;100094.56;10460173;28;20041;-66
2023/12/24 15:32:34;;;;;;;1999.90;999.90;;;;;;;12.68;100.00;100102.72;10458998;28;20132;-66
2023/12/24 15:37:37;;;;;;;1999.90;999.90;;;;;;;12.71;100.00;100113.81;10458613;28;20555;-66
2023/12/24 15:42:40;;;;;;;1999.90;999.90;;;;;;;12.81;100.00;100121.81;10458206;28;20480;-66
2023/12/24 15:47:42;;;;;;;1999.90;999.90;;;;;;;12.75;100.00;100114.41;10459377;28;20045;-66
2023/12/24 15:52:45;;;;;;;1999.90;999.90;;;;;;;12.81;100.00;100113.94;10457742;28;20056;-65
2023/12/24 15:57:47;;;;;;;1999.90;999.90;;;;;;;12.67;100.00;100106.28;10457867;28;20059;-66
2023/12/24 16:02:49;;;;;;;1999.90;999.90;;;;;;;12.77;100.00;100117.75;10457466;28;20483;-66
2023/12/24 16:07:52;;;;;;;1999.90;999.90;;;;;;;12.71;100.00;100115.56;10458439;28;20056;-66
2023/12/24 16:12:55;;;;;;;1999.90;999.90;;;;;;;12.69;100.00;100133.25;10440123;28;20055;-66
2023/12/24 16:17:57;;;;;;;1999.90;999.90;;;;;;;12.55;100.00;100110.69;10457954;28;20063;-66
2023/12/24 16:22:59;;;;;;;1999.90;999.90;;;;;;;12.66;100.00;100120.34;10456691;28;20412;-66
2023/12/24 16:28:02;;;;;;;1999.90;999.90;;;;;;;12.52;100.00;100132.75;10457635;28;20045;-65
2023/12/24 16:33:04;;;;;;;1999.90;999.90;;;;;;;12.55;100.00;100119.38;10457449;28;20472;-66
2023/12/24 16:38:07;;;;;;;1999.90;999.90;;;;;;;12.50;100.00;100116.28;10457313;28;20049;-66
2023/12/24 16:43:09;;;;;;;1999.90;999.90;;;;;;;12.51;100.00;100132.84;10457051;28;20514;-65
2023/12/24 16:48:12;;;;;;;1999.90;999.90;;;;;;;12.52;100.00;100177.38;10457157;28;20052;-66
2023/12/24 16:53:16;;;;;;;1999.90;999.90;;;;;;;12.63;100.00;100177.41;10457138;28;20052;-66
2023/12/24 16:58:18;;;;;;;1999.90;999.90;;;;;;;12.63;100.00;100164.28;10457021;28;20049;-66
2023/12/24 17:03:21;;;;;;;1999.90;999.90;;;;;;;12.59;100.00;100162.00;10455358;28;20587;-66
2023/12/24 17:08:23;;;;;;;1999.90;999.90;;;;;;;12.45;100.00;100186.69;10456706;28;20057;-66
2023/12/24 17:13:26;;;;;;;1999.90;999.90;;;;;;;12.52;100.00;100208.88;10456788;28;20049;-66
2023/12/24 17:18:29;;;;;;;1999.90;999.90;;;;;;;12.54;100.00;100178.13;10454849;28;20427;-67
2023/12/24 17:23:31;;;;;;;1999.90;999.90;;;;;;;12.56;100.00;100191.97;10461683;28;20442;-66
2023/12/24 17:28:34;;;;;;;1999.90;999.90;;;;;;;12.57;100.00;100213.81;10464935;28;20060;-66
2023/12/24 17:33:36;;;;;;;1999.90;999.90;;;;;;;12.59;100.00;100217.16;10464446;28;20049;-66
2023/12/24 17:38:39;;;;;;;1999.90;999.90;;;;;;;12.54;100.00;100216.66;10464100;28;20049;-65
2023/12/24 17:43:41;;;;;;;1999.90;999.90;;;;;;;12.55;100.00;100210.47;10464052;28;20131;-66
2023/12/24 17:48:46;;;;;;;1999.90;999.90;;;;;;;12.52;100.00;100216.78;10464124;28;20045;-66
2023/12/24 17:53:49;;;;;;;1999.90;999.90;;;;;;;12.54;100.00;100208.78;10462641;28;20053;-66
2023/12/24 17:58:51;;;;;;;1999.90;999.90;;;;;;;12.49;100.00;100190.75;10462463;28;20136;-66
2023/12/24 18:03:54;;;;;;;1999.90;999.90;;;;;;;12.33;100.00;100212.06;10463459;28;20055;-67
2023/12/24 18:08:56;;;;;;;1999.90;999.90;;;;;;;12.32;100.00;100234.00;10462797;28;20542;-66
2023/12/24 18:13:58;;;;;;;1999.90;999.90;;;;;;;12.46;100.00;100233.00;10462990;28;20078;-67
2023/12/24 18:19:01;;;;;;;1999.90;999.90;;;;;;;12.34;100.00;100244.38;10462594;28;20049;-67
2023/12/24 18:24:05;;;;;;;1999.90;999.90;;;;;;;12.25;100.00;100257.25;10462882;28;20076;-66
2023/12/24 18:29:12;;;;;;;1999.90;999.90;;;;;;;12.47;100.00;100284.53;10462444;28;20045;-67
2023/12/24 18:34:14;;;;;;;1999.90;999.90;;;;;;;12.44;100.00;100275.13;10461684;28;20053;-67
2023/12/24 18:39:17;;;;;;;1999.90;999.90;;;;;;;12.37;100.00;100292.28;10460915;28;20118;-67
2023/12/24 18:44:19;;;;;;;1999.90;999.90;;;;;;;12.41;100.00;100261.38;10461788;28;20059;-67
2023/12/24 18:49:22;;;;;;;1999.90;999.90;;;;;;;12.48;100.00;100274.91;10461577;28;20095;-66
2023/12/24 18:54:24;;;;;;;1999.90;999.90;;;;;;;12.54;100.00;100290.19;10461360;28;20118;-67
2023/12/24 18:59:27;;;;;;;1999.90;999.90;;;;;;;12.49;100.00;100297.56;10460281;28;20060;-66
2023/12/24 19:04:29;;;;;;;1999.90;999.90;;;;;;;12.48;100.00;100290.66;10461111;28;20045;-66
2023/12/24 19:09:31;;;;;;;1999.90;999.90;;;;;;;12.37;100.00;100315.03;10460732;28;20060;-67
2023/12/24 19:14:34;;;;;;;1999.90;999.90;;;;;;;12.48;100.00;100301.16;10461216;28;20128;-67
2023/12/24 19:19:36;;;;;;;1999.90;999.90;;;;;;;12.53;100.00;100301.66;10460397;28;20079;-67
2023/12/24 19:24:39;;;;;;;1999.90;999.90;;;;;;;12.59;100.00;100295.94;10460426;28;20060;-66
2023/12/24 19:29:42;;;;;;;1999.90;999.90;;;;;;;12.51;100.00;100293.03;10460068;28;20051;-66
2023/12/24 19:34:45;;;;;;;1999.90;999.90;;;;;;;12.54;100.00;100314.66;10460040;28;20191;-67
2023/12/24 19:39:48;;;;;;;1999.90;999.90;;;;;;;12.51;100.00;100283.38;10459619;28;20399;-67
2023/12/24 19:44:50;;;;;;;1999.90;999.90;;;;;;;12.53;100.00;100306.91;10458284;28;20049;-67
2023/12/24 19:49:53;;;;;;;1999.90;999.90;;;;;;;12.57;100.00;100330.19;10441770;28;20053;-67
2023/12/24 19:54:55;;;;;;;1999.90;999.90;;;;;;;12.49;100.00;100302.81;10459000;28;20045;-67
2023/12/24 19:59:57;;;;;;;1999.90;999.90;;;;;;;12.48;100.00;100320.34;10459027;28;20052;-67
2023/12/24 20:05:00;;;;;;;1999.90;999.90;;;;;;;12.48;100.00;100315.09;10458729;28;20044;-66
2023/12/24 20:10:03;;;;;;;1999.90;999.90;;;;;;;12.42;100.00;100310.28;10457414;28;20407;-67
2023/12/24 20:15:06;;;;;;;1999.90;999.90;;;;;;;12.46;100.00;100314.38;10458359;28;20124;-66
2023/12/24 20:20:09;;;;;;;1999.90;999.90;;;;;;;12.43;100.00;100309.34;10458163;28;20056;-66
2023/12/24 20:25:11;;;;;;;1999.90;999.90;;;;;;;12.42;100.00;100326.91;10458073;28;20072;-67
2023/12/24 20:30:14;;;;;;;1999.90;999.90;;;;;;;12.51;100.00;100333.28;10457813;28;20080;-67
2023/12/24 20:35:16;;;;;;;1999.90;999.90;;;;;;;12.45;100.00;100341.59;10456254;28;20397;-66
2023/12/24 20:40:19;;;;;;;1999.90;999.90;;;;;;;12.48;100.00;100338.75;10457339;28;20101;-67
2023/12/24 20:45:21;;;;;;;1999.90;999.90;;;;;;;12.45;100.00;100342.41;10455999;28;20162;-66
2023/12/24 20:50:24;;;;;;;1999.90;999.90;;;;;;;12.63;100.00;100327.09;10455977;28;20053;-67
2023/12/24 20:55:26;;;;;;;1999.90;999.90;;;;;;;12.57;100.00;100321.47;10455880;28;20531;-67
2023/12/24 21:00:29;;;;;;;1999.90;999.90;;;;;;;12.45;100.00;100344.22;10456722;28;20556;-67
2023/12/24 21:05:31;;;;;;;1999.90;999.90;;;;;;;12.56;100.00;100332.94;10456640;28;20056;-67
2023/12/24 21:10:33;;;;;;;1999.90;999.90;;;;;;;12.68;100.00;100328.56;10456334;28;20524;-66
2023/12/24 21:15:36;;;;;;;1999.90;999.90;;;;;;;12.66;100.00;100315.56;10455832;28;20087;-66
2023/12/24 21:20:38;;;;;;;1999.90;999.90;;;;;;;12.54;100.00;100338.31;10456227;28;20059;-66
2023/12/24 21:25:41;;;;;;;1999.90;999.90;;;;;;;12.52;100.00;100341.97;10456132;28;20439;-66
2023/12/24 21:30:43;;;;;;;1999.90;999.90;;;;;;;12.53;100.00;100341.03;10454940;28;20508;-66
2023/12/24 21:35:46;;;;;;;1999.90;999.90;;;;;;;12.54;100.00;100340.94;10456466;28;20095;-66
2023/12/24 21:40:48;;;;;;;1999.90;999.90;;;;;;;12.43;100.00;100348.75;10456013;28;20569;-67
2023/12/24 21:45:51;;;;;;;1999.90;999.90;;;;;;;12.43;100.00;100362.69;10454769;28;20100;-66